createdAt,value
2022-12-24T00:01:42.874Z,23.90
2022-12-24T00:08:42.669Z,23.91
2022-12-24T00:15:42.461Z,23.87
2022-12-24T00:22:42.323Z,23.87
2022-12-24T00:44:41.619Z,23.87
2022-12-24T00:45:41.586Z,23.89
2022-12-24T00:46:41.687Z,23.89
2022-12-24T00:47:41.543Z,23.87
2022-12-24T00:48:41.506Z,23.86
2022-12-24T00:49:41.474Z,23.87
2022-12-24T00:50:41.521Z,23.89
2022-12-24T00:51:41.411Z,23.89
2022-12-24T00:52:41.381Z,23.89
2022-12-24T00:53:41.358Z,23.89
2022-12-24T00:54:41.314Z,23.89
2022-12-24T00:55:41.287Z,23.91
2022-12-24T00:56:41.253Z,23.90
2022-12-24T00:57:41.230Z,23.89
2022-12-24T00:58:41.207Z,23.90
2022-12-24T00:59:41.166Z,23.87
2022-12-24T01:00:41.120Z,23.89
2022-12-24T01:01:41.213Z,23.90
2022-12-24T01:02:41.238Z,23.89
2022-12-24T01:03:41.151Z,23.91
2022-12-24T01:04:40.983Z,23.87
2022-12-24T01:05:40.945Z,23.87
2022-12-24T01:06:40.906Z,23.87
2022-12-24T01:07:40.875Z,23.89
2022-12-24T01:08:40.836Z,23.86
2022-12-24T01:09:40.808Z,23.87
2022-12-24T01:10:40.776Z,23.86
2022-12-24T01:11:40.747Z,23.87
2022-12-24T01:12:40.711Z,23.84
2022-12-24T01:13:40.688Z,23.84
2022-12-24T01:14:40.655Z,23.87
2022-12-24T01:15:40.698Z,23.86
2022-12-24T01:16:40.645Z,23.87
2022-12-24T01:17:40.558Z,23.86
2022-12-24T01:18:40.524Z,23.87
2022-12-24T01:19:40.485Z,23.89
2022-12-24T01:20:40.452Z,23.86
2022-12-24T01:21:40.401Z,23.84
2022-12-24T01:22:40.381Z,23.86
2022-12-24T01:23:40.804Z,23.86
2022-12-24T01:24:40.303Z,23.87
2022-12-24T01:25:40.293Z,23.84
2022-12-24T01:26:40.233Z,23.86
2022-12-24T01:27:40.206Z,23.87
2022-12-24T01:28:40.169Z,23.87
2022-12-24T01:29:40.129Z,23.87
2022-12-24T01:30:40.098Z,23.86
2022-12-24T01:35:40.720Z,23.80
2022-12-24T04:34:34.557Z,23.76
2022-12-24T04:35:34.525Z,23.77
2022-12-24T04:36:34.514Z,23.79
2022-12-24T04:37:34.485Z,23.77
2022-12-24T04:38:34.474Z,23.80
2022-12-24T04:39:34.432Z,23.77
2022-12-24T04:40:34.405Z,23.77
2022-12-24T04:41:34.386Z,23.79
2022-12-24T04:42:34.353Z,23.77
2022-12-24T04:43:34.326Z,23.76
2022-12-24T04:44:34.334Z,23.79
2022-12-24T04:45:34.331Z,23.81
2022-12-24T04:46:34.240Z,23.77
2022-12-24T04:47:34.229Z,23.77
2022-12-24T04:48:34.189Z,23.77
2022-12-24T04:49:34.160Z,23.77
2022-12-24T04:50:34.137Z,23.80
2022-12-24T04:51:34.121Z,23.79
2022-12-24T04:52:34.080Z,23.74
2022-12-24T04:53:34.060Z,23.77
2022-12-24T04:54:34.019Z,23.76
2022-12-24T04:55:33.995Z,23.76
2022-12-24T04:56:33.971Z,23.77
2022-12-24T04:57:33.971Z,23.77
2022-12-24T04:58:33.906Z,23.76
2022-12-24T04:59:33.883Z,23.77
2022-12-24T05:00:33.863Z,23.76
2022-12-24T05:01:33.994Z,23.74
2022-12-24T05:02:34.104Z,23.73
2022-12-24T05:03:33.845Z,23.76
2022-12-24T05:04:33.767Z,23.76
2022-12-24T05:05:33.738Z,23.74
2022-12-24T05:06:33.731Z,23.74
2022-12-24T05:07:33.706Z,23.73
2022-12-24T05:08:33.681Z,23.76
2022-12-24T05:09:33.655Z,23.74
2022-12-24T05:10:33.618Z,23.74
2022-12-24T05:11:33.583Z,23.74
2022-12-24T05:12:33.565Z,23.73
2022-12-24T05:13:40.749Z,23.76
2022-12-24T05:14:34.489Z,23.76
2022-12-24T05:15:33.465Z,23.76
2022-12-24T05:16:33.479Z,23.74
2022-12-24T05:17:33.401Z,23.73
2022-12-24T05:18:33.377Z,23.76
2022-12-24T05:19:33.339Z,23.73
2022-12-24T05:20:33.326Z,23.74
2022-12-24T05:21:33.312Z,23.72
2022-12-24T05:22:33.314Z,23.73
2022-12-24T05:23:33.241Z,23.74
2022-12-24T05:24:33.213Z,23.76
2022-12-24T05:25:33.195Z,23.74
2022-12-24T05:26:33.164Z,23.74
2022-12-24T05:27:33.129Z,23.73
2022-12-24T05:28:33.114Z,23.73
2022-12-24T05:29:33.082Z,23.76
2022-12-24T05:30:33.112Z,23.74
2022-12-24T05:31:33.024Z,23.76
2022-12-24T05:32:33.011Z,23.74
2022-12-24T05:33:32.968Z,23.74
2022-12-24T05:34:32.951Z,23.73
2022-12-24T05:35:32.932Z,23.72
2022-12-24T05:36:32.902Z,23.73
2022-12-24T05:37:32.860Z,23.73
2022-12-24T05:38:32.839Z,23.73
2022-12-24T05:39:32.813Z,23.73
2022-12-24T05:40:32.784Z,23.73
2022-12-24T05:41:32.739Z,23.77
2022-12-24T05:42:32.726Z,23.76
2022-12-24T05:43:32.680Z,23.74
2022-12-24T05:44:32.664Z,23.77
2022-12-24T05:45:32.626Z,23.77
2022-12-24T05:46:32.663Z,23.74
2022-12-24T05:47:35.689Z,23.76
2022-12-24T05:48:33.549Z,23.74
2022-12-24T05:49:32.527Z,23.76
2022-12-24T05:50:32.493Z,23.72
2022-12-24T05:51:32.456Z,23.73
2022-12-24T05:52:32.424Z,23.73
2022-12-24T05:53:32.423Z,23.74
2022-12-24T05:54:32.353Z,23.76
2022-12-24T05:55:32.345Z,23.73
2022-12-24T05:56:32.314Z,23.76
2022-12-24T05:57:32.296Z,23.74
2022-12-24T05:58:32.276Z,23.76
2022-12-24T05:59:32.248Z,23.73
2022-12-24T06:00:32.196Z,23.76
2022-12-24T06:01:32.196Z,23.74
2022-12-24T06:02:32.226Z,23.74
2022-12-24T06:03:32.101Z,23.74
2022-12-24T06:04:32.082Z,23.76
2022-12-24T06:05:32.041Z,23.72
2022-12-24T06:06:32.020Z,23.72
2022-12-24T06:07:31.995Z,23.74
2022-12-24T06:08:31.951Z,23.72
2022-12-24T06:09:31.989Z,23.73
2022-12-24T06:10:31.889Z,23.73
2022-12-24T06:11:31.863Z,23.70
2022-12-24T06:12:31.839Z,23.70
2022-12-24T06:13:31.807Z,23.73
2022-12-24T06:14:31.772Z,23.74
2022-12-24T06:15:31.759Z,23.74
2022-12-24T06:16:31.767Z,23.73
2022-12-24T06:17:31.679Z,23.72
2022-12-24T06:18:31.637Z,23.72
2022-12-24T06:19:31.589Z,23.72
2022-12-24T06:20:31.568Z,23.72
2022-12-24T06:21:31.527Z,23.68
2022-12-24T06:22:31.481Z,23.73
2022-12-24T06:23:31.487Z,23.69
2022-12-24T06:24:31.415Z,23.69
2022-12-24T06:25:31.375Z,23.68
2022-12-24T06:26:31.360Z,23.72
2022-12-24T06:27:31.312Z,23.69
2022-12-24T06:28:31.305Z,23.70
2022-12-24T06:29:31.255Z,23.69
2022-12-24T06:30:31.224Z,23.70
2022-12-24T06:31:31.225Z,23.70
2022-12-24T06:32:31.172Z,23.70
2022-12-24T06:33:31.144Z,23.72
2022-12-24T06:34:31.108Z,23.70
2022-12-24T06:35:31.070Z,23.72
2022-12-24T06:36:31.044Z,23.70
2022-12-24T06:37:31.007Z,23.70
2022-12-24T06:38:30.989Z,23.72
2022-12-24T06:39:30.954Z,23.70
2022-12-24T06:40:30.929Z,23.70
2022-12-24T06:41:30.879Z,23.73
2022-12-24T06:42:30.851Z,23.70
2022-12-24T06:43:30.822Z,23.70
2022-12-24T06:44:30.787Z,23.74
2022-12-24T06:45:30.762Z,23.73
2022-12-24T06:46:30.807Z,23.73
2022-12-24T06:47:30.684Z,23.70
2022-12-24T06:48:30.676Z,23.72
2022-12-24T06:49:30.649Z,23.73
2022-12-24T06:50:30.639Z,23.73
2022-12-24T06:51:30.692Z,23.69
2022-12-24T06:52:31.325Z,23.72
2022-12-24T06:53:30.528Z,23.72
2022-12-24T06:54:30.473Z,23.70
2022-12-24T06:55:30.438Z,23.72
2022-12-24T06:56:30.428Z,23.73
2022-12-24T06:57:30.376Z,23.73
2022-12-24T06:58:30.378Z,23.70
2022-12-24T06:59:30.323Z,23.70
2022-12-24T07:00:30.308Z,23.74
2022-12-24T07:01:30.366Z,23.72
2022-12-24T07:02:30.384Z,23.73
2022-12-24T07:03:30.286Z,23.72
2022-12-24T07:04:30.379Z,23.72
2022-12-24T07:05:30.830Z,23.72
2022-12-24T07:06:30.115Z,23.74
2022-12-24T10:46:23.569Z,24.34
2022-12-24T10:47:23.513Z,24.35
2022-12-24T10:48:23.448Z,24.32
2022-12-24T10:49:23.416Z,24.34
2022-12-24T10:50:23.389Z,24.34
2022-12-24T10:51:23.360Z,24.32
2022-12-24T10:52:23.340Z,24.32
2022-12-24T10:53:23.297Z,24.30
2022-12-24T10:54:27.227Z,24.31
2022-12-24T10:55:23.195Z,24.27
2022-12-24T10:56:23.159Z,24.31
2022-12-24T10:57:23.147Z,24.31
2022-12-24T10:58:23.099Z,24.30
2022-12-24T10:59:23.054Z,24.30
2022-12-24T11:00:23.031Z,24.30
2022-12-24T11:01:23.010Z,24.31
2022-12-24T11:02:23.104Z,24.27
2022-12-24T11:03:22.928Z,24.28
2022-12-24T11:04:22.890Z,24.25
2022-12-24T11:05:22.842Z,24.25
2022-12-24T11:06:22.808Z,24.27
2022-12-24T11:07:22.775Z,24.27
2022-12-24T11:08:22.728Z,24.27
2022-12-24T11:09:22.696Z,24.25
2022-12-24T11:10:22.668Z,24.24
2022-12-24T11:11:22.613Z,24.28
2022-12-24T11:12:22.586Z,24.27
2022-12-24T11:13:38.999Z,24.25
2022-12-24T11:14:23.504Z,24.24
2022-12-24T11:15:22.469Z,24.25
2022-12-24T11:16:22.479Z,24.28
2022-12-24T11:17:22.402Z,24.28
2022-12-24T11:18:22.350Z,24.24
2022-12-24T11:19:22.324Z,24.28
2022-12-24T11:20:22.283Z,24.25
2022-12-24T11:21:22.251Z,24.27
2022-12-24T11:22:22.242Z,24.31
2022-12-24T11:23:22.210Z,24.28
2022-12-24T11:24:22.175Z,24.30
2022-12-24T11:25:22.093Z,24.31
2022-12-24T11:26:22.052Z,24.28
2022-12-24T11:27:22.013Z,24.25
2022-12-24T11:28:21.978Z,24.28
2022-12-24T11:29:21.946Z,24.30
2022-12-24T11:30:21.876Z,24.27
2022-12-24T11:31:21.912Z,24.27
2022-12-24T11:32:21.801Z,24.31
2022-12-24T11:33:21.779Z,24.30
2022-12-24T11:34:22.429Z,24.30
2022-12-24T11:35:22.417Z,24.31
2022-12-24T11:36:21.793Z,24.31
2022-12-24T11:37:21.746Z,24.30
2022-12-24T11:38:21.564Z,24.31
2022-12-24T11:39:21.546Z,24.30
2022-12-24T11:40:21.502Z,24.27
2022-12-24T11:41:21.441Z,24.30
2022-12-24T11:42:21.402Z,24.30
2022-12-24T11:43:21.381Z,24.27
2022-12-24T11:44:21.337Z,24.30
2022-12-24T11:45:21.325Z,24.28
2022-12-24T11:46:21.366Z,24.30
2022-12-24T11:47:21.229Z,24.25
2022-12-24T11:48:21.192Z,24.28
2022-12-24T11:49:21.159Z,24.28
2022-12-24T11:50:21.119Z,24.30
2022-12-24T11:51:21.077Z,24.30
2022-12-24T11:52:21.041Z,24.28
2022-12-24T11:53:21.014Z,24.28
2022-12-24T11:54:21.005Z,24.27
2022-12-24T11:55:20.939Z,24.30
2022-12-24T11:56:20.896Z,24.25
2022-12-24T11:57:20.879Z,24.25
2022-12-24T11:58:20.834Z,24.23
2022-12-24T11:59:20.797Z,24.23
2022-12-24T12:00:20.764Z,24.21
2022-12-24T12:01:20.782Z,24.24
2022-12-24T12:02:20.729Z,24.23
2022-12-24T12:03:20.671Z,24.25
2022-12-24T12:04:20.671Z,24.24
2022-12-24T12:05:20.555Z,24.25
2022-12-24T12:06:20.513Z,24.27
2022-12-24T12:07:20.513Z,24.23
2022-12-24T12:08:20.457Z,24.25
2022-12-24T12:09:20.490Z,24.24
2022-12-24T12:10:20.425Z,24.23
2022-12-24T12:11:20.935Z,24.24
2022-12-24T12:12:20.374Z,24.27
2022-12-24T12:13:20.296Z,24.27
2022-12-24T12:14:20.220Z,24.23
2022-12-24T12:15:20.183Z,24.21
2022-12-24T12:16:20.293Z,24.24
2022-12-24T15:49:12.837Z,23.83
2022-12-24T15:50:12.828Z,23.84
2022-12-24T15:51:12.779Z,23.84
2022-12-24T15:52:12.767Z,23.87
2022-12-24T15:53:20.535Z,23.84
2022-12-24T15:54:12.699Z,23.86
2022-12-24T15:55:12.663Z,23.87
2022-12-24T15:56:12.636Z,23.87
2022-12-24T15:57:12.629Z,23.84
2022-12-24T15:58:12.628Z,23.87
2022-12-24T15:59:14.516Z,23.89
2022-12-24T16:00:12.560Z,23.87
2022-12-24T16:01:13.161Z,23.84
2022-12-24T16:02:13.254Z,23.90
2022-12-24T16:03:12.552Z,23.87
2022-12-24T16:04:13.022Z,23.87
2022-12-24T16:05:12.376Z,23.87
2022-12-24T16:06:12.367Z,23.87
2022-12-24T16:07:12.325Z,23.87
2022-12-24T16:08:12.290Z,23.87
2022-12-24T16:09:12.266Z,23.89
2022-12-24T16:10:12.230Z,23.86
2022-12-24T16:11:12.217Z,23.89
2022-12-24T16:12:12.187Z,23.86
2022-12-24T16:13:12.142Z,23.89
2022-12-24T16:14:12.128Z,23.87
2022-12-24T16:15:12.090Z,23.86
2022-12-24T16:16:12.151Z,23.87
2022-12-24T16:17:12.053Z,23.86
2022-12-24T16:18:12.019Z,23.86
2022-12-24T16:19:12.950Z,23.86
2022-12-24T16:20:11.970Z,23.87
2022-12-24T16:21:11.930Z,23.89
2022-12-24T16:22:11.918Z,23.86
2022-12-24T16:23:11.891Z,23.89
2022-12-24T16:24:11.873Z,23.84
2022-12-24T16:25:11.824Z,23.86
2022-12-24T16:26:11.793Z,23.86
2022-12-24T16:27:11.764Z,23.84
2022-12-24T16:28:16.171Z,23.89
2022-12-24T16:29:12.733Z,23.84
2022-12-24T16:30:11.653Z,23.86
2022-12-24T16:31:11.707Z,23.86
2022-12-24T16:32:11.594Z,23.86
2022-12-24T16:33:11.570Z,23.86
2022-12-24T16:34:11.538Z,23.86
2022-12-24T16:35:11.504Z,23.86
2022-12-24T16:36:11.467Z,23.86
2022-12-24T16:37:11.435Z,23.84
2022-12-24T16:38:11.411Z,23.84
2022-12-24T16:39:11.382Z,23.84
2022-12-24T16:40:16.688Z,23.84
2022-12-24T16:41:12.331Z,23.87
2022-12-24T16:42:11.302Z,23.87
2022-12-24T16:43:11.275Z,23.84
2022-12-24T16:44:11.239Z,23.86
2022-12-24T16:45:11.203Z,23.83
2022-12-24T16:46:11.227Z,23.84
2022-12-24T16:47:11.139Z,23.83
2022-12-24T16:48:11.110Z,23.83
2022-12-24T16:49:11.076Z,23.83
2022-12-24T16:50:11.049Z,23.84
2022-12-24T16:51:11.003Z,23.83
2022-12-24T16:52:10.996Z,23.84
2022-12-24T16:53:17.206Z,23.84
2022-12-24T16:54:11.917Z,23.84
2022-12-24T16:55:10.889Z,23.84
2022-12-24T16:56:10.848Z,23.87
2022-12-24T16:57:10.817Z,23.84
2022-12-24T16:58:10.793Z,23.87
2022-12-24T16:59:10.751Z,23.84
2022-12-24T17:00:10.720Z,23.86
2022-12-24T17:01:10.867Z,23.86
2022-12-24T17:02:14.395Z,23.86
2022-12-24T17:03:10.741Z,23.86
2022-12-24T17:04:10.692Z,23.86
2022-12-24T17:05:10.668Z,23.83
2022-12-24T17:06:10.676Z,23.84
2022-12-24T17:07:11.039Z,23.81
2022-12-24T17:08:10.549Z,23.86
2022-12-24T17:09:10.512Z,23.83
2022-12-24T17:10:10.445Z,23.83
2022-12-24T17:11:10.434Z,23.81
2022-12-24T17:12:10.398Z,23.81
2022-12-24T17:13:10.373Z,23.81
2022-12-24T17:14:14.941Z,23.83
2022-12-24T17:15:11.332Z,23.83
2022-12-24T17:16:10.371Z,23.83
2022-12-24T17:17:10.283Z,23.84
2022-12-24T17:18:10.256Z,23.83
2022-12-24T17:19:10.211Z,23.81
2022-12-24T17:20:10.183Z,23.83
2022-12-24T17:21:10.178Z,23.80
2022-12-24T17:22:10.143Z,23.83
2022-12-24T17:23:10.122Z,23.81
2022-12-24T21:15:04.121Z,23.70
2022-12-24T21:16:03.677Z,23.69
2022-12-24T21:17:03.696Z,23.70
2022-12-24T21:18:03.648Z,23.68
2022-12-24T21:19:03.591Z,23.69
2022-12-24T21:20:03.478Z,23.69
2022-12-24T21:21:03.457Z,23.69
2022-12-24T21:22:03.407Z,23.72
2022-12-24T21:23:03.381Z,23.70
2022-12-24T21:24:03.346Z,23.70
2022-12-24T21:25:03.315Z,23.70
2022-12-24T21:26:03.286Z,23.70
2022-12-24T21:27:03.261Z,23.72
2022-12-24T21:28:03.211Z,23.70
2022-12-24T21:29:03.174Z,23.69
2022-12-24T21:30:03.140Z,23.70
2022-12-24T21:31:03.202Z,23.69
2022-12-24T21:32:03.102Z,23.70
2022-12-24T21:33:03.046Z,23.74
2022-12-24T21:34:03.014Z,23.72
2022-12-24T21:35:02.978Z,23.70
2022-12-24T21:36:02.936Z,23.70
2022-12-24T21:37:02.916Z,23.72
2022-12-24T21:38:02.865Z,23.72
2022-12-24T21:39:02.854Z,23.72
2022-12-24T21:40:02.821Z,23.72
2022-12-24T21:41:02.774Z,23.72
2022-12-24T21:42:02.752Z,23.70
2022-12-24T21:43:02.691Z,23.70
2022-12-24T21:44:02.677Z,23.73
2022-12-24T21:45:02.638Z,23.70
2022-12-24T21:46:02.651Z,23.69
2022-12-24T21:47:02.588Z,23.69
2022-12-24T21:48:02.578Z,23.70
2022-12-24T21:49:02.539Z,23.70
2022-12-24T21:50:02.486Z,23.68
2022-12-24T21:51:02.435Z,23.70
2022-12-24T21:52:02.423Z,23.70
2022-12-24T21:53:02.386Z,23.72
2022-12-24T21:54:02.364Z,23.69
2022-12-24T21:55:02.303Z,23.70
2022-12-24T21:56:02.279Z,23.69
2022-12-24T21:57:02.264Z,23.70
2022-12-24T21:58:02.228Z,23.69
2022-12-24T21:59:02.194Z,23.72
2022-12-24T22:00:02.182Z,23.69
2022-12-24T22:01:02.184Z,23.69
2022-12-24T22:02:02.416Z,23.69
2022-12-24T22:03:02.255Z,23.70
2022-12-24T22:04:02.057Z,23.69
2022-12-24T22:05:02.001Z,23.66
2022-12-24T22:06:01.974Z,23.70
2022-12-24T22:07:01.937Z,23.66
2022-12-24T22:08:02.179Z,23.69
2022-12-24T22:09:01.873Z,23.70
2022-12-24T22:10:01.868Z,23.70
2022-12-24T22:11:01.818Z,23.69
2022-12-24T22:12:01.786Z,23.69
2022-12-24T22:13:01.752Z,23.69
2022-12-24T22:14:01.710Z,23.70
2022-12-24T22:15:01.675Z,23.72
2022-12-24T22:16:01.647Z,23.70
2022-12-24T22:17:01.705Z,23.69
2022-12-24T22:18:01.584Z,23.66
2022-12-24T22:19:01.539Z,23.70
2022-12-24T22:20:01.505Z,23.66
2022-12-24T22:21:01.480Z,23.69
2022-12-24T22:22:01.432Z,23.68
2022-12-24T22:23:01.408Z,23.68
2022-12-24T22:24:01.365Z,23.70
2022-12-24T22:25:01.342Z,23.68
2022-12-24T22:26:01.322Z,23.68
2022-12-24T22:27:01.274Z,23.69
2022-12-24T22:28:01.263Z,23.68
2022-12-24T22:29:01.223Z,23.69
2022-12-24T22:30:01.212Z,23.69
2022-12-24T22:31:01.212Z,23.68
2022-12-24T22:32:01.125Z,23.68
2022-12-24T22:33:01.090Z,23.68
2022-12-24T22:34:01.062Z,23.68
2022-12-24T22:35:01.035Z,23.66
2022-12-24T22:36:00.976Z,23.69
2022-12-24T22:37:00.965Z,23.66
2022-12-24T22:38:00.917Z,23.69
2022-12-24T22:39:00.916Z,23.68
2022-12-24T22:40:00.883Z,23.66
2022-12-24T22:41:00.865Z,23.68
2022-12-24T22:42:00.838Z,23.66
2022-12-24T22:43:00.858Z,23.66
2022-12-24T22:44:00.696Z,23.68
2022-12-24T22:45:00.676Z,23.65
2022-12-24T22:46:00.674Z,23.66
2022-12-24T22:47:00.590Z,23.66
2022-12-24T22:48:00.570Z,23.65
2022-12-24T22:49:00.531Z,23.66
2022-12-24T22:50:00.487Z,23.68
2022-12-24T22:51:00.439Z,23.68
2022-12-24T22:52:00.413Z,23.68
2022-12-24T22:53:00.408Z,23.66
2022-12-24T22:54:00.376Z,23.66
2022-12-24T22:55:00.327Z,23.69
2022-12-24T22:56:00.323Z,23.68
2022-12-24T22:57:00.285Z,23.66
2022-12-24T22:58:00.232Z,23.66
2022-12-24T22:59:00.199Z,23.68
2022-12-24T23:00:00.190Z,23.65
2022-12-24T23:01:00.205Z,23.68
2022-12-24T23:02:00.271Z,23.66
